Grandview, GA

7:51 PM EDT on March 26, 2017 (GMT -0400)
Bent Tree | | Change Station

Elev 2192 ft 34.50 °N, 84.34 °W | Updated 12 minutes ago

Partly Cloudy
Partly Cloudy
67.9 °F
Feels Like 67.9 °F
N
0.0
Wind Variable Wind from NE
Gusts 3.0 mph

Today
High -- | Low -- °F
--% Chance of Precip.
Yesterday
High -- | Low -- °F
Precip. -- in
Pressure 30.06 in
Visibility 10.0 miles
Clouds Scattered Clouds 10000 ft
Dew Point 53 °F
Humidity 60%
Rainfall 0.09 in
Snow Depth Not available.
7:32 AM 7:53 PM
Waning Crescent, 2% visible
METAR KCNI 262335Z AUTO 23005KT 10SM SCT100 24/03 A3006 RMK AO2
Pressure 30.06 in
Visibility 10.0 miles
Clouds Scattered Clouds 10000 ft
Dew Point 53 °F
Humidity 60%
Rainfall 0.09 in
Snow Depth Not available.
7:32 AM 7:53 PM
Waning Crescent, 2% visible
METAR KCNI 262335Z AUTO 23005KT 10SM SCT100 24/03 A3006 RMK AO2

Get Severe Weather Alerts

Thanks for signing up!

Be on the lookout for a verification email in your inbox.

You'll start receiving the daily forecast at 8 AM.

×

10-Day Weather Forecast

Almanac

Astronomy

Mar. 26, 2017 Rise Set
Actual Time
Civil Twilight
Nautical Twilight
Astronomical Twilight
Moon
Length of Visible Light
Length of Day
Tomorrow will be .
, % of the Moon is Illuminated

Today's Extremes

State Highs State Lows

Community

WunderPhotos

Upload Photos

1,962,540 photos uploaded!

WunderBlog® & News

Nearby

Air Quality

  Air Quality AQ Index Pollutant
Not available.

Snow Depth

Station Depth Elevation

Earthquake Activity

City Distance Mag. Time & Date
Minimum magnitude displayed is 2.5.

Earthquake Activity

City Distance Mag. Time & Date
Minimum magnitude displayed is 2.5.

Coastal Water Temperatures

Place Temperature

Stations

Nearby Weather Stations

Station Location Temp. Windchill Dew Point Humidity Wind Precip. Elev Updated Type
                   

Watches & Warnings

There are currently no watches in effect.